Grinnell, Iowa
Current Conditions -  °F | °C
As of 5:15 PM on Sunday 21 Dec 2014 (Local Time) from KGGI Reporting Station
Overcast Overcast  
Wind Chill: 32°   Ceiling: 1300
Heat Index: 39°   Visibility: 7mi
Dew Point: 38°   Wind: 12mph
Humidity: 94%   Direction: 160°SSE
Pressure: 29.85"   Gusts: NA
Location:  41.75°N, 92.73°W
Report Text: KGGI 212315Z AUTO 16010KT 7SM BKN013 OVC029 04/03 A2985 RMK AO2 T00400031
Loading
Personal Weather Stations






























Interactive Weather Map New forecast layout! Learn more

10-Day Weather Forecast

Advertisements
Track Severe Weather on mobile